sensor_id;sensor_type;location;lat;lon;timestamp;P1;durP1;ratioP1;P2;durP2;ratioP2
69835;SDS011;57132;51.972;4.450;2022-11-20T00:00:52;1999.90;;;999.90;;
69835;SDS011;57132;51.972;4.450;2022-11-20T00:03:17;1999.90;;;999.90;;
69835;SDS011;57132;51.972;4.450;2022-11-20T00:05:43;1999.90;;;999.90;;
69835;SDS011;57132;51.972;4.450;2022-11-20T00:08:09;1999.90;;;999.90;;
69835;SDS011;57132;51.972;4.450;2022-11-20T00:10:37;1999.90;;;999.90;;
69835;SDS011;57132;51.972;4.450;2022-11-20T00:13:04;1999.90;;;999.90;;
69835;SDS011;57132;51.972;4.450;2022-11-20T00:15:30;1999.90;;;999.90;;
69835;SDS011;57132;51.972;4.450;2022-11-20T00:17:55;1999.90;;;999.90;;
69835;SDS011;57132;51.972;4.450;2022-11-20T00:20:21;1999.90;;;999.90;;
69835;SDS011;57132;51.972;4.450;2022-11-20T00:22:47;1999.90;;;999.90;;
69835;SDS011;57132;51.972;4.450;2022-11-20T00:25:12;1999.90;;;999.90;;
69835;SDS011;57132;51.972;4.450;2022-11-20T00:27:37;1999.90;;;999.90;;
69835;SDS011;57132;51.972;4.450;2022-11-20T00:30:03;1999.90;;;999.90;;
69835;SDS011;57132;51.972;4.450;2022-11-20T00:32:29;1999.90;;;999.90;;
69835;SDS011;57132;51.972;4.450;2022-11-20T00:34:55;1999.90;;;999.90;;
69835;SDS011;57132;51.972;4.450;2022-11-20T00:37:20;1999.90;;;999.90;;
69835;SDS011;57132;51.972;4.450;2022-11-20T00:39:46;1999.90;;;999.90;;
69835;SDS011;57132;51.972;4.450;2022-11-20T00:42:11;1999.90;;;999.90;;
69835;SDS011;57132;51.972;4.450;2022-11-20T00:44:36;1999.90;;;999.90;;
69835;SDS011;57132;51.972;4.450;2022-11-20T00:47:02;1999.90;;;999.90;;
69835;SDS011;57132;51.972;4.450;2022-11-20T00:49:27;1999.90;;;999.90;;
69835;SDS011;57132;51.972;4.450;2022-11-20T00:51:52;1999.90;;;999.90;;
69835;SDS011;57132;51.972;4.450;2022-11-20T00:54:18;1999.90;;;999.90;;
69835;SDS011;57132;51.972;4.450;2022-11-20T00:56:43;1999.90;;;999.90;;
69835;SDS011;57132;51.972;4.450;2022-11-20T00:59:09;1999.90;;;999.90;;
69835;SDS011;57132;51.972;4.450;2022-11-20T01:01:36;1999.90;;;999.90;;
69835;SDS011;57132;51.972;4.450;2022-11-20T01:04:02;1999.90;;;999.90;;
69835;SDS011;57132;51.972;4.450;2022-11-20T01:06:35;1999.90;;;999.90;;
69835;SDS011;57132;51.972;4.450;2022-11-20T01:09:05;1999.90;;;999.90;;
69835;SDS011;57132;51.972;4.450;2022-11-20T01:11:37;1999.90;;;999.90;;
69835;SDS011;57132;51.972;4.450;2022-11-20T01:14:05;1999.90;;;999.90;;
69835;SDS011;57132;51.972;4.450;2022-11-20T01:16:33;1999.90;;;999.90;;
69835;SDS011;57132;51.972;4.450;2022-11-20T01:19:02;1999.90;;;999.90;;
69835;SDS011;57132;51.972;4.450;2022-11-20T01:21:32;1999.90;;;999.90;;
69835;SDS011;57132;51.972;4.450;2022-11-20T01:24:00;1999.90;;;999.90;;
69835;SDS011;57132;51.972;4.450;2022-11-20T01:26:27;1999.90;;;999.90;;
69835;SDS011;57132;51.972;4.450;2022-11-20T01:28:55;1999.90;;;999.90;;
69835;SDS011;57132;51.972;4.450;2022-11-20T01:31:26;1999.90;;;999.90;;
69835;SDS011;57132;51.972;4.450;2022-11-20T01:33:59;1999.90;;;999.90;;
69835;SDS011;57132;51.972;4.450;2022-11-20T01:36:27;1999.90;;;999.90;;
69835;SDS011;57132;51.972;4.450;2022-11-20T01:38:55;1999.90;;;999.90;;
69835;SDS011;57132;51.972;4.450;2022-11-20T01:41:22;1999.90;;;999.90;;
69835;SDS011;57132;51.972;4.450;2022-11-20T01:44:09;1999.90;;;999.90;;
69835;SDS011;57132;51.972;4.450;2022-11-20T01:46:37;1999.90;;;999.90;;
69835;SDS011;57132;51.972;4.450;2022-11-20T01:49:15;1999.90;;;999.90;;
69835;SDS011;57132;51.972;4.450;2022-11-20T01:54:17;1999.90;;;999.90;;
69835;SDS011;57132;51.972;4.450;2022-11-20T01:56:48;1999.90;;;999.90;;
69835;SDS011;57132;51.972;4.450;2022-11-20T01:59:19;1999.90;;;999.90;;
69835;SDS011;57132;51.972;4.450;2022-11-20T02:01:45;1999.90;;;999.90;;
69835;SDS011;57132;51.972;4.450;2022-11-20T02:04:11;1999.90;;;999.90;;
69835;SDS011;57132;51.972;4.450;2022-11-20T02:06:45;1999.90;;;999.90;;
69835;SDS011;57132;51.972;4.450;2022-11-20T02:09:13;1999.90;;;999.90;;
69835;SDS011;57132;51.972;4.450;2022-11-20T02:11:40;1999.90;;;999.90;;
69835;SDS011;57132;51.972;4.450;2022-11-20T02:14:05;1999.90;;;999.90;;
69835;SDS011;57132;51.972;4.450;2022-11-20T02:16:36;1999.90;;;999.90;;
69835;SDS011;57132;51.972;4.450;2022-11-20T02:19:05;1999.90;;;999.90;;
69835;SDS011;57132;51.972;4.450;2022-11-20T02:21:43;1999.90;;;999.90;;
69835;SDS011;57132;51.972;4.450;2022-11-20T02:24:19;1999.90;;;999.90;;
69835;SDS011;57132;51.972;4.450;2022-11-20T02:26:51;1999.90;;;999.90;;
69835;SDS011;57132;51.972;4.450;2022-11-20T02:29:22;1999.90;;;999.90;;
69835;SDS011;57132;51.972;4.450;2022-11-20T02:31:53;1999.90;;;999.90;;
69835;SDS011;57132;51.972;4.450;2022-11-20T02:34:19;1999.90;;;999.90;;
69835;SDS011;57132;51.972;4.450;2022-11-20T02:36:45;1999.90;;;999.90;;
69835;SDS011;57132;51.972;4.450;2022-11-20T02:39:13;1999.90;;;999.90;;
69835;SDS011;57132;51.972;4.450;2022-11-20T02:41:41;1999.90;;;999.90;;
69835;SDS011;57132;51.972;4.450;2022-11-20T02:44:07;1999.90;;;999.90;;
69835;SDS011;57132;51.972;4.450;2022-11-20T02:46:33;1999.90;;;999.90;;
69835;SDS011;57132;51.972;4.450;2022-11-20T02:48:59;1999.90;;;999.90;;
69835;SDS011;57132;51.972;4.450;2022-11-20T02:51:26;1999.90;;;999.90;;
69835;SDS011;57132;51.972;4.450;2022-11-20T02:53:51;1999.90;;;999.90;;
69835;SDS011;57132;51.972;4.450;2022-11-20T02:56:16;1999.90;;;999.90;;
69835;SDS011;57132;51.972;4.450;2022-11-20T02:58:42;1999.90;;;999.90;;
69835;SDS011;57132;51.972;4.450;2022-11-20T03:01:07;1999.90;;;999.90;;
69835;SDS011;57132;51.972;4.450;2022-11-20T03:03:32;1999.90;;;999.90;;
69835;SDS011;57132;51.972;4.450;2022-11-20T03:05:58;1999.90;;;999.90;;
69835;SDS011;57132;51.972;4.450;2022-11-20T03:08:24;1999.90;;;999.90;;
69835;SDS011;57132;51.972;4.450;2022-11-20T03:10:50;1999.90;;;999.90;;
69835;SDS011;57132;51.972;4.450;2022-11-20T03:13:15;1999.90;;;999.90;;
69835;SDS011;57132;51.972;4.450;2022-11-20T03:15:40;1999.90;;;999.90;;
69835;SDS011;57132;51.972;4.450;2022-11-20T03:18:06;1999.90;;;999.90;;
69835;SDS011;57132;51.972;4.450;2022-11-20T03:20:32;1999.90;;;999.90;;
69835;SDS011;57132;51.972;4.450;2022-11-20T03:22:58;1999.90;;;999.90;;
69835;SDS011;57132;51.972;4.450;2022-11-20T03:25:24;1999.90;;;999.90;;
69835;SDS011;57132;51.972;4.450;2022-11-20T03:27:49;1999.90;;;999.90;;
69835;SDS011;57132;51.972;4.450;2022-11-20T03:30:15;1999.90;;;999.90;;
69835;SDS011;57132;51.972;4.450;2022-11-20T03:32:41;1999.90;;;999.90;;
69835;SDS011;57132;51.972;4.450;2022-11-20T03:35:06;1999.90;;;999.90;;
69835;SDS011;57132;51.972;4.450;2022-11-20T03:37:32;1999.90;;;999.90;;
69835;SDS011;57132;51.972;4.450;2022-11-20T03:39:57;1999.90;;;999.90;;
69835;SDS011;57132;51.972;4.450;2022-11-20T03:42:23;1999.90;;;999.90;;
69835;SDS011;57132;51.972;4.450;2022-11-20T03:45:07;1999.90;;;999.90;;
69835;SDS011;57132;51.972;4.450;2022-11-20T03:47:32;1999.90;;;999.90;;
69835;SDS011;57132;51.972;4.450;2022-11-20T03:49:58;1999.90;;;999.90;;
69835;SDS011;57132;51.972;4.450;2022-11-20T03:52:23;1999.90;;;999.90;;
69835;SDS011;57132;51.972;4.450;2022-11-20T03:54:48;1999.90;;;999.90;;
69835;SDS011;57132;51.972;4.450;2022-11-20T03:57:14;1999.90;;;999.90;;
69835;SDS011;57132;51.972;4.450;2022-11-20T03:59:39;1999.90;;;999.90;;
69835;SDS011;57132;51.972;4.450;2022-11-20T04:02:04;1999.90;;;999.90;;
69835;SDS011;57132;51.972;4.450;2022-11-20T04:04:29;1999.90;;;999.90;;
69835;SDS011;57132;51.972;4.450;2022-11-20T04:06:55;1999.90;;;999.90;;
69835;SDS011;57132;51.972;4.450;2022-11-20T04:09:20;1999.90;;;999.90;;
69835;SDS011;57132;51.972;4.450;2022-11-20T04:11:45;1999.90;;;999.90;;
69835;SDS011;57132;51.972;4.450;2022-11-20T04:14:15;1999.90;;;999.90;;
69835;SDS011;57132;51.972;4.450;2022-11-20T04:16:41;1999.90;;;999.90;;
69835;SDS011;57132;51.972;4.450;2022-11-20T04:19:09;1999.90;;;999.90;;
69835;SDS011;57132;51.972;4.450;2022-11-20T04:21:38;1999.90;;;999.90;;
69835;SDS011;57132;51.972;4.450;2022-11-20T04:24:03;1999.90;;;999.90;;
69835;SDS011;57132;51.972;4.450;2022-11-20T04:26:29;1999.90;;;999.90;;
69835;SDS011;57132;51.972;4.450;2022-11-20T04:28:55;1999.90;;;999.90;;
69835;SDS011;57132;51.972;4.450;2022-11-20T04:31:22;1999.90;;;999.90;;
69835;SDS011;57132;51.972;4.450;2022-11-20T04:33:52;1999.90;;;999.90;;
69835;SDS011;57132;51.972;4.450;2022-11-20T04:36:21;1999.90;;;999.90;;
69835;SDS011;57132;51.972;4.450;2022-11-20T04:38:51;1999.90;;;999.90;;
69835;SDS011;57132;51.972;4.450;2022-11-20T04:41:18;1999.90;;;999.90;;
69835;SDS011;57132;51.972;4.450;2022-11-20T04:43:48;1999.90;;;999.90;;
69835;SDS011;57132;51.972;4.450;2022-11-20T04:46:14;1999.90;;;999.90;;
69835;SDS011;57132;51.972;4.450;2022-11-20T04:48:40;1999.90;;;999.90;;
69835;SDS011;57132;51.972;4.450;2022-11-20T04:51:05;1999.90;;;999.90;;
69835;SDS011;57132;51.972;4.450;2022-11-20T04:53:31;1999.90;;;999.90;;
69835;SDS011;57132;51.972;4.450;2022-11-20T04:56:00;1999.90;;;999.90;;
69835;SDS011;57132;51.972;4.450;2022-11-20T04:58:27;1999.90;;;999.90;;
69835;SDS011;57132;51.972;4.450;2022-11-20T05:00:53;1999.90;;;999.90;;
69835;SDS011;57132;51.972;4.450;2022-11-20T05:03:18;1999.90;;;999.90;;
69835;SDS011;57132;51.972;4.450;2022-11-20T05:05:43;1999.90;;;999.90;;
69835;SDS011;57132;51.972;4.450;2022-11-20T05:08:09;1999.90;;;999.90;;
69835;SDS011;57132;51.972;4.450;2022-11-20T05:10:34;1999.90;;;999.90;;
69835;SDS011;57132;51.972;4.450;2022-11-20T05:12:59;1999.90;;;999.90;;
69835;SDS011;57132;51.972;4.450;2022-11-20T05:15:25;1999.90;;;999.90;;
69835;SDS011;57132;51.972;4.450;2022-11-20T05:17:50;1999.90;;;999.90;;
69835;SDS011;57132;51.972;4.450;2022-11-20T05:20:17;1999.90;;;999.90;;
69835;SDS011;57132;51.972;4.450;2022-11-20T05:22:43;1999.90;;;999.90;;
69835;SDS011;57132;51.972;4.450;2022-11-20T05:25:09;1999.90;;;999.90;;
69835;SDS011;57132;51.972;4.450;2022-11-20T05:27:34;1999.90;;;999.90;;
69835;SDS011;57132;51.972;4.450;2022-11-20T05:30:00;1999.90;;;999.90;;
69835;SDS011;57132;51.972;4.450;2022-11-20T05:32:25;1999.90;;;999.90;;
69835;SDS011;57132;51.972;4.450;2022-11-20T05:34:51;1999.90;;;999.90;;
69835;SDS011;57132;51.972;4.450;2022-11-20T05:37:17;1999.90;;;999.90;;
69835;SDS011;57132;51.972;4.450;2022-11-20T05:39:42;1999.90;;;999.90;;
69835;SDS011;57132;51.972;4.450;2022-11-20T05:42:07;1999.90;;;999.90;;
69835;SDS011;57132;51.972;4.450;2022-11-20T05:44:51;1999.90;;;999.90;;
69835;SDS011;57132;51.972;4.450;2022-11-20T05:47:16;1999.90;;;999.90;;
69835;SDS011;57132;51.972;4.450;2022-11-20T05:49:42;1999.90;;;999.90;;
69835;SDS011;57132;51.972;4.450;2022-11-20T05:52:07;1999.90;;;999.90;;
69835;SDS011;57132;51.972;4.450;2022-11-20T05:54:32;1999.90;;;999.90;;
69835;SDS011;57132;51.972;4.450;2022-11-20T05:56:58;1999.90;;;999.90;;
69835;SDS011;57132;51.972;4.450;2022-11-20T05:59:23;1999.90;;;999.90;;
69835;SDS011;57132;51.972;4.450;2022-11-20T06:01:48;1999.90;;;999.90;;
69835;SDS011;57132;51.972;4.450;2022-11-20T06:04:13;1999.90;;;999.90;;
69835;SDS011;57132;51.972;4.450;2022-11-20T06:06:39;1999.90;;;999.90;;
69835;SDS011;57132;51.972;4.450;2022-11-20T06:09:04;1999.90;;;999.90;;
69835;SDS011;57132;51.972;4.450;2022-11-20T06:11:30;1999.90;;;999.90;;
69835;SDS011;57132;51.972;4.450;2022-11-20T06:13:55;1999.90;;;999.90;;
69835;SDS011;57132;51.972;4.450;2022-11-20T06:16:20;1999.90;;;999.90;;
69835;SDS011;57132;51.972;4.450;2022-11-20T06:18:46;1999.90;;;999.90;;
69835;SDS011;57132;51.972;4.450;2022-11-20T06:21:13;1999.90;;;999.90;;
69835;SDS011;57132;51.972;4.450;2022-11-20T06:23:40;1999.90;;;999.90;;
69835;SDS011;57132;51.972;4.450;2022-11-20T06:26:07;1999.90;;;999.90;;
69835;SDS011;57132;51.972;4.450;2022-11-20T06:28:34;1999.90;;;999.90;;
69835;SDS011;57132;51.972;4.450;2022-11-20T06:31:00;1999.90;;;999.90;;
69835;SDS011;57132;51.972;4.450;2022-11-20T06:33:26;1999.90;;;999.90;;
69835;SDS011;57132;51.972;4.450;2022-11-20T06:35:51;1999.90;;;999.90;;
69835;SDS011;57132;51.972;4.450;2022-11-20T06:38:17;1999.90;;;999.90;;
69835;SDS011;57132;51.972;4.450;2022-11-20T06:40:42;1999.90;;;999.90;;
69835;SDS011;57132;51.972;4.450;2022-11-20T06:43:09;1999.90;;;999.90;;
69835;SDS011;57132;51.972;4.450;2022-11-20T06:45:35;1999.90;;;999.90;;
69835;SDS011;57132;51.972;4.450;2022-11-20T06:48:01;1999.90;;;999.90;;
69835;SDS011;57132;51.972;4.450;2022-11-20T06:50:26;1999.90;;;999.90;;
69835;SDS011;57132;51.972;4.450;2022-11-20T06:52:51;1999.90;;;999.90;;
69835;SDS011;57132;51.972;4.450;2022-11-20T06:55:17;1999.90;;;999.90;;
69835;SDS011;57132;51.972;4.450;2022-11-20T06:57:42;1999.90;;;999.90;;
69835;SDS011;57132;51.972;4.450;2022-11-20T07:00:07;1999.90;;;999.90;;
69835;SDS011;57132;51.972;4.450;2022-11-20T07:02:33;1999.90;;;999.90;;
69835;SDS011;57132;51.972;4.450;2022-11-20T07:04:58;1999.90;;;999.90;;
69835;SDS011;57132;51.972;4.450;2022-11-20T07:07:24;1999.90;;;999.90;;
69835;SDS011;57132;51.972;4.450;2022-11-20T07:09:49;1999.90;;;999.90;;
69835;SDS011;57132;51.972;4.450;2022-11-20T07:12:14;1999.90;;;999.90;;
69835;SDS011;57132;51.972;4.450;2022-11-20T07:14:40;1999.90;;;999.90;;
69835;SDS011;57132;51.972;4.450;2022-11-20T07:17:05;1999.90;;;999.90;;
69835;SDS011;57132;51.972;4.450;2022-11-20T07:19:30;1999.90;;;999.90;;
69835;SDS011;57132;51.972;4.450;2022-11-20T07:21:56;1999.90;;;999.90;;
69835;SDS011;57132;51.972;4.450;2022-11-20T07:24:21;1999.90;;;999.90;;
69835;SDS011;57132;51.972;4.450;2022-11-20T07:26:46;1999.90;;;999.90;;
69835;SDS011;57132;51.972;4.450;2022-11-20T07:29:14;1999.90;;;999.90;;
69835;SDS011;57132;51.972;4.450;2022-11-20T07:31:39;1999.90;;;999.90;;
69835;SDS011;57132;51.972;4.450;2022-11-20T07:34:05;1999.90;;;999.90;;
69835;SDS011;57132;51.972;4.450;2022-11-20T07:36:30;1999.90;;;999.90;;
69835;SDS011;57132;51.972;4.450;2022-11-20T07:38:55;1999.90;;;999.90;;
69835;SDS011;57132;51.972;4.450;2022-11-20T07:41:21;1999.90;;;999.90;;
69835;SDS011;57132;51.972;4.450;2022-11-20T07:43:46;1999.90;;;999.90;;
69835;SDS011;57132;51.972;4.450;2022-11-20T07:46:11;1999.90;;;999.90;;
69835;SDS011;57132;51.972;4.450;2022-11-20T07:48:37;1999.90;;;999.90;;
69835;SDS011;57132;51.972;4.450;2022-11-20T07:51:02;1999.90;;;999.90;;
69835;SDS011;57132;51.972;4.450;2022-11-20T07:53:27;1999.90;;;999.90;;
69835;SDS011;57132;51.972;4.450;2022-11-20T07:55:53;1999.90;;;999.90;;
69835;SDS011;57132;51.972;4.450;2022-11-20T07:58:19;1999.90;;;999.90;;
69835;SDS011;57132;51.972;4.450;2022-11-20T08:00:45;1999.90;;;999.90;;
69835;SDS011;57132;51.972;4.450;2022-11-20T08:03:10;1999.90;;;999.90;;
69835;SDS011;57132;51.972;4.450;2022-11-20T08:05:36;1533.13;;;780.28;;
69835;SDS011;57132;51.972;4.450;2022-11-20T08:08:02;1525.78;;;773.50;;
69835;SDS011;57132;51.972;4.450;2022-11-20T08:10:28;1525.00;;;772.70;;
69835;SDS011;57132;51.972;4.450;2022-11-20T08:12:53;1533.88;;;781.03;;
69835;SDS011;57132;51.972;4.450;2022-11-20T08:15:38;1999.90;;;999.90;;
69835;SDS011;57132;51.972;4.450;2022-11-20T08:18:05;1525.28;;;772.88;;
69835;SDS011;57132;51.972;4.450;2022-11-20T08:20:32;1999.90;;;999.90;;
69835;SDS011;57132;51.972;4.450;2022-11-20T08:22:59;1999.90;;;999.90;;
69835;SDS011;57132;51.972;4.450;2022-11-20T08:25:26;1999.90;;;999.90;;
69835;SDS011;57132;51.972;4.450;2022-11-20T08:27:53;1999.90;;;999.90;;
69835;SDS011;57132;51.972;4.450;2022-11-20T08:30:18;1534.97;;;781.83;;
69835;SDS011;57132;51.972;4.450;2022-11-20T08:32:43;1535.03;;;781.80;;
69835;SDS011;57132;51.972;4.450;2022-11-20T08:35:09;1999.90;;;999.90;;
69835;SDS011;57132;51.972;4.450;2022-11-20T08:37:34;1999.90;;;999.90;;
69835;SDS011;57132;51.972;4.450;2022-11-20T08:39:59;1999.90;;;999.90;;
69835;SDS011;57132;51.972;4.450;2022-11-20T08:42:25;1999.90;;;999.90;;
69835;SDS011;57132;51.972;4.450;2022-11-20T08:44:50;1999.90;;;999.90;;
69835;SDS011;57132;51.972;4.450;2022-11-20T08:47:16;1519.07;;;766.97;;
69835;SDS011;57132;51.972;4.450;2022-11-20T08:49:41;1533.32;;;780.05;;
69835;SDS011;57132;51.972;4.450;2022-11-20T08:52:06;1999.90;;;999.90;;
69835;SDS011;57132;51.972;4.450;2022-11-20T08:54:31;1999.90;;;999.90;;
69835;SDS011;57132;51.972;4.450;2022-11-20T08:56:57;1999.90;;;999.90;;
69835;SDS011;57132;51.972;4.450;2022-11-20T08:59:22;1532.78;;;779.47;;
69835;SDS011;57132;51.972;4.450;2022-11-20T09:01:48;1530.55;;;777.67;;
69835;SDS011;57132;51.972;4.450;2022-11-20T09:04:13;1999.90;;;999.90;;
69835;SDS011;57132;51.972;4.450;2022-11-20T09:06:39;1999.90;;;999.90;;
69835;SDS011;57132;51.972;4.450;2022-11-20T09:09:05;1999.90;;;999.90;;
69835;SDS011;57132;51.972;4.450;2022-11-20T09:11:30;1532.15;;;779.30;;
69835;SDS011;57132;51.972;4.450;2022-11-20T09:13:56;1999.90;;;999.90;;
69835;SDS011;57132;51.972;4.450;2022-11-20T09:16:21;1534.75;;;781.50;;
69835;SDS011;57132;51.972;4.450;2022-11-20T09:18:49;1532.50;;;779.42;;
69835;SDS011;57132;51.972;4.450;2022-11-20T09:21:15;1533.07;;;779.85;;
69835;SDS011;57132;51.972;4.450;2022-11-20T09:23:40;1999.90;;;999.90;;
69835;SDS011;57132;51.972;4.450;2022-11-20T09:26:12;1525.07;;;772.55;;
69835;SDS011;57132;51.972;4.450;2022-11-20T09:28:38;1999.90;;;999.90;;
69835;SDS011;57132;51.972;4.450;2022-11-20T09:31:05;1999.90;;;999.90;;
69835;SDS011;57132;51.972;4.450;2022-11-20T09:33:31;1516.63;;;764.78;;
69835;SDS011;57132;51.972;4.450;2022-11-20T09:35:56;1999.90;;;999.90;;
69835;SDS011;57132;51.972;4.450;2022-11-20T09:38:22;1526.40;;;773.83;;
69835;SDS011;57132;51.972;4.450;2022-11-20T09:40:57;1999.90;;;999.90;;
69835;SDS011;57132;51.972;4.450;2022-11-20T09:43:32;1999.90;;;999.90;;
69835;SDS011;57132;51.972;4.450;2022-11-20T09:49:33;1999.90;;;999.90;;
69835;SDS011;57132;51.972;4.450;2022-11-20T09:51:57;1999.90;;;999.90;;
69835;SDS011;57132;51.972;4.450;2022-11-20T09:54:29;1999.90;;;999.90;;
69835;SDS011;57132;51.972;4.450;2022-11-20T09:57:01;1520.85;;;768.85;;
69835;SDS011;57132;51.972;4.450;2022-11-20T09:59:38;1525.53;;;772.75;;
69835;SDS011;57132;51.972;4.450;2022-11-20T10:05:15;1514.50;;;761.65;;
69835;SDS011;57132;51.972;4.450;2022-11-20T10:30:07;1999.90;;;999.90;;
69835;SDS011;57132;51.972;4.450;2022-11-20T10:32:42;1534.25;;;780.80;;
69835;SDS011;57132;51.972;4.450;2022-11-20T10:37:40;1552.53;;;797.15;;
69835;SDS011;57132;51.972;4.450;2022-11-20T10:42:44;1569.88;;;813.15;;
69835;SDS011;57132;51.972;4.450;2022-11-20T10:45:43;1563.10;;;806.85;;
69835;SDS011;57132;51.972;4.450;2022-11-20T10:48:21;214.10;;;192.38;;
69835;SDS011;57132;51.972;4.450;2022-11-20T10:53:33;286.95;;;259.33;;
69835;SDS011;57132;51.972;4.450;2022-11-20T10:56:25;228.13;;;205.57;;
69835;SDS011;57132;51.972;4.450;2022-11-20T11:01:56;1565.35;;;809.13;;
69835;SDS011;57132;51.972;4.450;2022-11-20T11:06:53;294.80;;;266.90;;
69835;SDS011;57132;51.972;4.450;2022-11-20T11:09:34;367.60;;;331.10;;
69835;SDS011;57132;51.972;4.450;2022-11-20T11:12:08;350.08;;;314.77;;
69835;SDS011;57132;51.972;4.450;2022-11-20T11:17:21;401.85;;;361.77;;
69835;SDS011;57132;51.972;4.450;2022-11-20T11:22:51;291.40;;;262.73;;
69835;SDS011;57132;51.972;4.450;2022-11-20T11:25:19;372.23;;;333.98;;
69835;SDS011;57132;51.972;4.450;2022-11-20T11:28:19;366.13;;;330.08;;
69835;SDS011;57132;51.972;4.450;2022-11-20T11:30:47;377.25;;;340.20;;
69835;SDS011;57132;51.972;4.450;2022-11-20T11:33:24;384.30;;;344.13;;
69835;SDS011;57132;51.972;4.450;2022-11-20T11:35:52;396.95;;;356.88;;
69835;SDS011;57132;51.972;4.450;2022-11-20T11:38:27;386.55;;;347.55;;
69835;SDS011;57132;51.972;4.450;2022-11-20T11:40:55;489.83;;;441.27;;
69835;SDS011;57132;51.972;4.450;2022-11-20T11:43:23;395.42;;;355.95;;
69835;SDS011;57132;51.972;4.450;2022-11-20T11:49:00;350.23;;;316.02;;
69835;SDS011;57132;51.972;4.450;2022-11-20T11:54:16;744.25;;;470.27;;
69835;SDS011;57132;51.972;4.450;2022-11-20T11:56:48;370.00;;;333.50;;
69835;SDS011;57132;51.972;4.450;2022-11-20T11:59:16;379.42;;;341.90;;
69835;SDS011;57132;51.972;4.450;2022-11-20T12:01:50;402.83;;;361.92;;
69835;SDS011;57132;51.972;4.450;2022-11-20T12:07:49;380.90;;;342.17;;
69835;SDS011;57132;51.972;4.450;2022-11-20T12:10:04;353.25;;;316.67;;
69835;SDS011;57132;51.972;4.450;2022-11-20T12:12:38;398.88;;;355.73;;
69835;SDS011;57132;51.972;4.450;2022-11-20T12:15:13;430.17;;;386.50;;
69835;SDS011;57132;51.972;4.450;2022-11-20T12:17:48;437.08;;;391.42;;
69835;SDS011;57132;51.972;4.450;2022-11-20T12:20:13;496.35;;;445.77;;
69835;SDS011;57132;51.972;4.450;2022-11-20T12:25:25;570.38;;;509.48;;
69835;SDS011;57132;51.972;4.450;2022-11-20T12:30:22;511.30;;;458.45;;
69835;SDS011;57132;51.972;4.450;2022-11-20T12:33:08;510.60;;;456.30;;
69835;SDS011;57132;51.972;4.450;2022-11-20T12:35:42;438.02;;;391.80;;
69835;SDS011;57132;51.972;4.450;2022-11-20T12:44:19;1531.78;;;778.42;;
69835;SDS011;57132;51.972;4.450;2022-11-20T12:46:50;1553.18;;;791.65;;
69835;SDS011;57132;51.972;4.450;2022-11-20T12:54:57;478.05;;;431.52;;
69835;SDS011;57132;51.972;4.450;2022-11-20T13:02:41;584.53;;;524.70;;
69835;SDS011;57132;51.972;4.450;2022-11-20T13:08:19;495.08;;;445.73;;
69835;SDS011;57132;51.972;4.450;2022-11-20T13:11:47;534.50;;;481.08;;
69835;SDS011;57132;51.972;4.450;2022-11-20T13:13:58;555.83;;;500.23;;
69835;SDS011;57132;51.972;4.450;2022-11-20T13:19:09;624.20;;;560.00;;
69835;SDS011;57132;51.972;4.450;2022-11-20T13:21:41;744.65;;;667.95;;
69835;SDS011;57132;51.972;4.450;2022-11-20T13:24:20;744.55;;;665.90;;
69835;SDS011;57132;51.972;4.450;2022-11-20T13:29:43;587.35;;;524.80;;
69835;SDS011;57132;51.972;4.450;2022-11-20T13:32:24;599.33;;;537.25;;
69835;SDS011;57132;51.972;4.450;2022-11-20T13:34:53;718.75;;;644.05;;
69835;SDS011;57132;51.972;4.450;2022-11-20T13:42:43;731.38;;;650.33;;
69835;SDS011;57132;51.972;4.450;2022-11-20T13:45:20;620.22;;;555.70;;
69835;SDS011;57132;51.972;4.450;2022-11-20T13:47:49;656.17;;;587.95;;
69835;SDS011;57132;51.972;4.450;2022-11-20T13:50:16;731.15;;;654.88;;
69835;SDS011;57132;51.972;4.450;2022-11-20T13:52:46;743.67;;;663.40;;
69835;SDS011;57132;51.972;4.450;2022-11-20T13:55:26;713.58;;;638.25;;
69835;SDS011;57132;51.972;4.450;2022-11-20T14:01:39;621.22;;;555.78;;
69835;SDS011;57132;51.972;4.450;2022-11-20T14:03:48;572.35;;;511.75;;
69835;SDS011;57132;51.972;4.450;2022-11-20T14:06:15;742.60;;;663.55;;
69835;SDS011;57132;51.972;4.450;2022-11-20T14:08:55;714.75;;;640.05;;
69835;SDS011;57132;51.972;4.450;2022-11-20T14:11:22;714.90;;;638.53;;
69835;SDS011;57132;51.972;4.450;2022-11-20T14:16:23;810.72;;;727.00;;
69835;SDS011;57132;51.972;4.450;2022-11-20T14:18:52;867.60;;;780.67;;
69835;SDS011;57132;51.972;4.450;2022-11-20T14:21:25;818.63;;;735.42;;
69835;SDS011;57132;51.972;4.450;2022-11-20T14:23:53;832.10;;;745.88;;
69835;SDS011;57132;51.972;4.450;2022-11-20T14:26:21;802.88;;;721.10;;
69835;SDS011;57132;51.972;4.450;2022-11-20T14:28:50;839.22;;;756.35;;
69835;SDS011;57132;51.972;4.450;2022-11-20T14:31:22;863.55;;;779.25;;
69835;SDS011;57132;51.972;4.450;2022-11-20T14:33:50;910.58;;;822.17;;
69835;SDS011;57132;51.972;4.450;2022-11-20T14:36:17;793.22;;;713.53;;
69835;SDS011;57132;51.972;4.450;2022-11-20T14:38:45;832.03;;;751.28;;
69835;SDS011;57132;51.972;4.450;2022-11-20T14:41:29;864.20;;;775.33;;
69835;SDS011;57132;51.972;4.450;2022-11-20T14:43:57;818.30;;;735.38;;
69835;SDS011;57132;51.972;4.450;2022-11-20T14:46:24;858.35;;;766.75;;
69835;SDS011;57132;51.972;4.450;2022-11-20T14:48:51;803.25;;;723.20;;
69835;SDS011;57132;51.972;4.450;2022-11-20T14:51:27;862.45;;;778.47;;
69835;SDS011;57132;51.972;4.450;2022-11-20T14:53:55;841.80;;;759.53;;
69835;SDS011;57132;51.972;4.450;2022-11-20T14:56:24;902.85;;;816.10;;
69835;SDS011;57132;51.972;4.450;2022-11-20T14:58:56;860.55;;;776.50;;
69835;SDS011;57132;51.972;4.450;2022-11-20T15:01:29;807.53;;;730.50;;
69835;SDS011;57132;51.972;4.450;2022-11-20T15:04:05;860.08;;;773.35;;
69835;SDS011;57132;51.972;4.450;2022-11-20T15:06:34;788.30;;;706.58;;
69835;SDS011;57132;51.972;4.450;2022-11-20T15:08:59;858.55;;;776.83;;
69835;SDS011;57132;51.972;4.450;2022-11-20T15:11:31;812.95;;;734.55;;
69835;SDS011;57132;51.972;4.450;2022-11-20T15:14:00;890.03;;;804.53;;
69835;SDS011;57132;51.972;4.450;2022-11-20T15:16:28;845.72;;;766.53;;
69835;SDS011;57132;51.972;4.450;2022-11-20T15:18:53;859.17;;;781.25;;
69835;SDS011;57132;51.972;4.450;2022-11-20T15:21:19;924.03;;;840.92;;
69835;SDS011;57132;51.972;4.450;2022-11-20T15:23:48;915.75;;;832.25;;
69835;SDS011;57132;51.972;4.450;2022-11-20T15:26:15;902.58;;;820.38;;
69835;SDS011;57132;51.972;4.450;2022-11-20T15:28:46;913.35;;;826.28;;
69835;SDS011;57132;51.972;4.450;2022-11-20T15:31:16;857.17;;;781.15;;
69835;SDS011;57132;51.972;4.450;2022-11-20T15:33:43;927.22;;;843.58;;
69835;SDS011;57132;51.972;4.450;2022-11-20T15:36:09;924.17;;;842.50;;